This is the latest recevied weather packets stored in our database for station/object KB0BS-13. If no packets are shown the sender has not sent any weather packets the latest 10 day(s).
| Time | Temp. | Humidity | Pressure | Rain* | Wind** | Luminosity | Snow |
|---|---|---|---|---|---|---|---|
| 1778008244 | 4.44° C | 84% | 1007.5 hPa | 1.27 mm | - | 91 W/m² | - |
| 1778007944 | 3.89° C | 85% | 1007.4 hPa | 1.27 mm | - | 79 W/m² | - |
| 1778007640 | 3.89° C | 85% | 1007.2 hPa | 0 mm | - | 94 W/m² | - |
| 1778007337 | 3.89° C | 84% | 1007.1 hPa | 0 mm | - | 90 W/m² | - |
| 1778007033 | 3.89° C | 84% | 1006.8 hPa | 0 mm | - | 74 W/m² | - |
| 1778006730 | 3.89° C | 86% | 1007 hPa | 0 mm | - | 96 W/m² | - |
| 1778006427 | 3.89° C | 86% | 1006.8 hPa | 0 mm | - | 109 W/m² | - |
| 1778006124 | 3.89° C | 84% | 1006.6 hPa | 0 mm | - | 135 W/m² | - |
| 1778005822 | 3.89° C | 81% | 1006.6 hPa | 0 mm | - | 224 W/m² | - |
| 1778005518 | 4.44° C | 79% | 1006.6 hPa | 0 mm | - | 178 W/m² | - |
| 1778005215 | 4.44° C | 77% | 1006.6 hPa | 0 mm | - | 142 W/m² | - |
| 1778004911 | 5° C | 74% | 1006.6 hPa | 0 mm | - | 109 W/m² | - |
| 1778004608 | 6.67° C | 73% | 1006.8 hPa | 0 mm | - | 118 W/m² | - |
| 1778004304 | 6.11° C | 74% | 1006.6 hPa | 0 mm | - | 140 W/m² | - |
| 1778004001 | 6.67° C | 67% | 1006.4 hPa | 0 mm | - | 135 W/m² | - |
| 1778003697 | 6.67° C | 67% | 1006.4 hPa | 0 mm | - | 135 W/m² | - |
| 1778003394 | 6.67° C | 67% | 1006 hPa | 0 mm | - | 115 W/m² | - |
| 1778003091 | 7.78° C | 51% | 1005.8 hPa | 0 mm | - | 125 W/m² | - |
| 1778002787 | 7.78° C | 54% | 1005.6 hPa | 0 mm | - | 128 W/m² | - |
| 1778002483 | 8.33° C | 53% | 1005.6 hPa | 0 mm | - | 172 W/m² | - |
| 1778002181 | 8.33° C | 52% | 1005.6 hPa | 0 mm | - | 211 W/m² | - |
| 1778001879 | 8.33° C | 55% | 1005.5 hPa | 0 mm | - | 305 W/m² | - |
| 1778001578 | 7.78° C | 53% | 1005.7 hPa | 0 mm | - | 153 W/m² | - |
| 1778001276 | 8.33° C | 53% | 1005.6 hPa | 0 mm | - | 173 W/m² | - |
| 1778000972 | 8.33° C | 53% | 1005.6 hPa | 0 mm | - | 173 W/m² | - |
* Rain latest hour (hover to see other rain measurements)
** Current wind speed in m/s (hover to see current wind gust speed)